createdAt,value
2022-11-22T00:01:39.944Z,88.49
2022-11-22T00:06:41.368Z,88.69
2022-11-22T00:11:42.797Z,89.46
2022-11-22T00:16:44.335Z,89.02
2022-11-22T00:21:45.793Z,89.01
2022-11-22T00:26:47.208Z,88.71
2022-11-22T00:31:48.691Z,88.67
2022-11-22T00:36:50.126Z,88.74
2022-11-22T00:41:51.532Z,88.94
2022-11-22T00:46:53.015Z,88.63
2022-11-22T00:51:54.436Z,88.67
2022-11-22T00:56:55.842Z,88.55
2022-11-22T01:01:57.329Z,88.53
2022-11-22T01:06:58.756Z,88.45
2022-11-22T01:12:00.155Z,88.64
2022-11-22T01:17:01.589Z,88.74
2022-11-22T01:22:02.988Z,88.73
2022-11-22T01:27:04.459Z,88.84
2022-11-22T01:32:06.587Z,88.27
2022-11-22T01:37:07.974Z,88.78
2022-11-22T01:42:11.099Z,89.14
2022-11-22T01:47:14.155Z,89.02
2022-11-22T01:52:21.779Z,88.77
2022-11-22T01:57:28.149Z,89.00
2022-11-22T02:02:29.602Z,89.02
2022-11-22T02:07:42.542Z,88.43
2022-11-22T02:12:44.393Z,88.95
2022-11-22T02:17:45.862Z,88.92
2022-11-22T02:23:06.742Z,88.95
2022-11-22T02:28:13.772Z,89.04
2022-11-22T02:33:15.199Z,89.10
2022-11-22T02:38:22.435Z,88.69
2022-11-22T02:43:29.853Z,88.73
2022-11-22T02:48:31.375Z,88.89
2022-11-22T02:53:32.815Z,89.60
2022-11-22T02:58:34.287Z,89.32
2022-11-22T03:03:35.803Z,89.14
2022-11-22T03:08:37.373Z,89.15
2022-11-22T03:13:38.761Z,89.37
2022-11-22T03:18:40.166Z,89.65
2022-11-22T03:23:41.615Z,89.51
2022-11-22T03:28:43.027Z,89.04
2022-11-22T03:33:44.551Z,89.52
2022-11-22T03:38:45.961Z,88.95
2022-11-22T03:43:47.349Z,89.37
2022-11-22T03:48:48.749Z,89.40
2022-11-22T03:53:50.161Z,89.74
2022-11-22T03:58:51.641Z,89.32
2022-11-22T04:03:53.113Z,89.61
2022-11-22T04:08:54.583Z,89.98
2022-11-22T04:14:14.919Z,89.76
2022-11-22T04:19:16.364Z,89.81
2022-11-22T04:24:36.192Z,89.37
2022-11-22T04:29:37.587Z,89.52
2022-11-22T04:34:38.985Z,89.27
2022-11-22T04:39:40.444Z,89.17
2022-11-22T04:44:42.964Z,89.09
2022-11-22T04:49:44.373Z,89.17
2022-11-22T04:54:45.834Z,89.60
2022-11-22T04:59:51.328Z,89.08
2022-11-22T05:04:52.736Z,89.61
2022-11-22T05:09:54.135Z,90.02
2022-11-22T05:14:55.571Z,89.88
2022-11-22T05:19:56.933Z,90.23
2022-11-22T05:24:58.406Z,90.08
2022-11-22T05:29:59.800Z,90.15
2022-11-22T05:35:01.206Z,90.69
2022-11-22T05:40:02.931Z,89.87
2022-11-22T05:45:04.662Z,89.88
2022-11-22T05:50:06.333Z,90.28
2022-11-22T05:55:07.956Z,90.04
2022-11-22T06:00:09.826Z,90.00
2022-11-22T06:05:13.322Z,89.94
2022-11-22T06:10:14.840Z,89.76
2022-11-22T06:15:16.252Z,90.38
2022-11-22T06:20:17.902Z,89.92
2022-11-22T06:25:19.296Z,89.89
2022-11-22T06:30:20.667Z,89.60
2022-11-22T06:35:22.029Z,90.55
2022-11-22T06:40:23.427Z,90.44
2022-11-22T06:45:24.799Z,90.13
2022-11-22T06:50:26.180Z,90.07
2022-11-22T06:55:49.812Z,89.78
2022-11-22T07:00:48.913Z,90.21
2022-11-22T07:05:51.661Z,90.29
2022-11-22T07:10:53.626Z,90.18
2022-11-22T07:16:00.114Z,90.39
2022-11-22T07:21:12.907Z,90.12
2022-11-22T07:26:17.037Z,90.59
2022-11-22T07:31:19.007Z,90.07
2022-11-22T07:36:22.206Z,90.40
2022-11-22T07:41:23.630Z,90.35
2022-11-22T07:46:29.791Z,90.58
2022-11-22T07:51:31.353Z,90.62
2022-11-22T07:56:34.424Z,90.88
2022-11-22T08:01:35.851Z,91.42
2022-11-22T08:06:37.291Z,90.83
2022-11-22T08:11:38.703Z,90.90
2022-11-22T08:16:40.212Z,90.95
2022-11-22T08:21:41.618Z,91.02
2022-11-22T08:26:43.603Z,91.01
2022-11-22T08:31:44.968Z,91.50
2022-11-22T08:36:46.342Z,90.96
2022-11-22T08:41:48.027Z,91.74
2022-11-22T08:46:49.388Z,91.64
2022-11-22T08:51:50.979Z,92.24
2022-11-22T08:56:52.342Z,92.20
2022-11-22T09:01:53.926Z,91.99
2022-11-22T09:12:16.812Z,91.96
2022-11-22T09:17:18.473Z,92.62
2022-11-22T09:22:22.807Z,93.09
2022-11-22T09:27:26.986Z,93.04
2022-11-22T09:32:33.474Z,93.80
2022-11-22T09:37:35.247Z,93.08
2022-11-22T09:42:43.227Z,93.40
2022-11-22T09:48:21.927Z,93.24
2022-11-22T09:53:30.415Z,93.34
2022-11-22T09:58:37.454Z,92.97
2022-11-22T10:03:51.849Z,92.70
2022-11-22T10:09:05.378Z,92.57
2022-11-22T10:14:29.759Z,93.06
2022-11-22T10:19:50.198Z,93.53
2022-11-22T10:24:51.559Z,93.72
2022-11-22T10:29:52.906Z,94.27
2022-11-22T10:35:30.591Z,93.96
2022-11-22T10:41:01.119Z,94.12
2022-11-22T10:46:27.635Z,93.85
2022-11-22T10:51:54.691Z,93.53
2022-11-22T10:57:11.146Z,93.07
2022-11-22T11:02:27.706Z,93.12
2022-11-22T11:07:29.408Z,93.20
2022-11-22T11:12:49.297Z,93.53
2022-11-22T11:17:58.662Z,93.62
2022-11-22T11:23:14.283Z,93.93
2022-11-22T11:28:19.310Z,94.14
2022-11-22T11:33:32.555Z,93.89
2022-11-22T11:38:48.454Z,94.59
2022-11-22T11:43:54.798Z,93.97
2022-11-22T11:49:10.094Z,93.66
2022-11-22T11:54:15.893Z,93.53
2022-11-22T11:59:22.907Z,93.67
2022-11-22T12:04:35.914Z,93.28
2022-11-22T12:09:44.140Z,93.11
2022-11-22T12:15:10.801Z,93.74
2022-11-22T12:20:21.095Z,93.21
2022-11-22T12:25:36.610Z,93.49
2022-11-22T12:30:40.931Z,93.24
2022-11-22T12:35:44.415Z,92.59
2022-11-22T12:40:51.182Z,92.23
2022-11-22T12:46:04.575Z,92.46
2022-11-22T12:51:28.648Z,92.68
2022-11-22T12:56:39.080Z,92.97
2022-11-22T13:01:54.307Z,92.56
2022-11-22T13:07:12.093Z,92.87
2022-11-22T13:12:31.717Z,92.55
2022-11-22T13:17:35.934Z,93.17
2022-11-22T13:22:49.768Z,92.73
2022-11-22T13:27:53.069Z,92.56
2022-11-22T13:32:59.511Z,92.84
2022-11-22T13:38:21.970Z,92.65
2022-11-22T13:43:33.182Z,92.24
2022-11-22T13:48:40.491Z,92.21
2022-11-22T13:53:45.920Z,92.05
2022-11-22T13:58:50.723Z,92.48
2022-11-22T14:03:52.755Z,92.58
2022-11-22T14:09:25.439Z,92.15
2022-11-22T14:14:58.944Z,92.06
2022-11-22T14:20:00.991Z,92.21
2022-11-22T14:25:17.694Z,92.20
2022-11-22T14:30:37.550Z,92.08
2022-11-22T14:35:59.138Z,92.22
2022-11-22T14:41:28.313Z,92.42
2022-11-22T14:46:52.713Z,92.13
2022-11-22T14:51:56.157Z,92.20
2022-11-22T14:57:04.336Z,91.76
2022-11-22T15:02:43.639Z,92.05
2022-11-22T15:09:12.130Z,91.97
2022-11-22T15:13:49.844Z,92.10
2022-11-22T15:57:46.933Z,92.32
2022-11-22T16:02:51.271Z,92.34
2022-11-22T16:07:53.478Z,91.78
2022-11-22T16:12:55.017Z,91.70
2022-11-22T16:18:14.410Z,91.76
2022-11-22T16:23:19.697Z,91.12
2022-11-22T16:28:28.780Z,90.87
2022-11-22T16:33:30.655Z,91.39
2022-11-22T16:38:32.163Z,90.90
2022-11-22T16:43:35.195Z,90.46
2022-11-22T16:48:36.570Z,91.05
2022-11-22T16:53:49.004Z,90.15
2022-11-22T16:58:51.735Z,90.42
2022-11-22T17:03:55.798Z,90.36
2022-11-22T17:08:59.043Z,91.00
2022-11-22T17:14:01.011Z,91.42
2022-11-22T17:19:02.472Z,90.83
2022-11-22T17:24:16.411Z,90.39
2022-11-22T17:29:43.355Z,90.48
2022-11-22T17:34:39.206Z,90.73
2022-11-22T17:39:40.906Z,90.58
2022-11-22T17:44:42.370Z,90.27
2022-11-22T17:49:44.060Z,90.67
2022-11-22T17:54:45.453Z,90.69
2022-11-22T17:59:46.860Z,90.23
2022-11-22T18:04:48.281Z,90.10
2022-11-22T18:09:51.543Z,91.06
2022-11-22T18:14:53.307Z,90.26
2022-11-22T18:19:54.671Z,90.58
2022-11-22T18:24:56.075Z,89.52
2022-11-22T18:29:57.627Z,89.52
2022-11-22T18:34:59.173Z,90.11
2022-11-22T18:40:01.416Z,89.77
2022-11-22T18:45:02.845Z,90.39
2022-11-22T18:50:06.369Z,89.99
2022-11-22T18:55:11.643Z,90.58
2022-11-22T19:00:14.287Z,90.01
2022-11-22T19:05:15.975Z,90.48
2022-11-22T19:10:17.447Z,90.97
2022-11-22T19:15:18.994Z,90.52
2022-11-22T19:20:47.503Z,90.51
2022-11-22T19:25:42.406Z,90.54
2022-11-22T19:30:44.425Z,90.35
2022-11-22T19:36:00.227Z,89.88
2022-11-22T19:41:01.745Z,90.31
2022-11-22T19:46:04.050Z,90.08
2022-11-22T20:17:34.910Z,90.31
2022-11-22T20:43:19.241Z,90.26
2022-11-22T20:52:36.962Z,90.40
2022-11-22T21:04:10.487Z,90.36
2022-11-22T21:50:50.279Z,90.57
2022-11-22T21:55:53.330Z,90.46
2022-11-22T22:00:57.526Z,90.79
2022-11-22T22:05:59.175Z,90.07
2022-11-22T22:11:02.371Z,90.12
2022-11-22T22:16:12.669Z,90.48
2022-11-22T22:21:15.204Z,90.58
2022-11-22T22:26:17.230Z,90.65
2022-11-22T22:31:22.154Z,90.13
2022-11-22T22:36:27.036Z,90.37
2022-11-22T22:41:28.475Z,90.20
2022-11-22T22:46:29.845Z,89.91
2022-11-22T22:51:33.123Z,90.35
2022-11-22T22:56:34.868Z,90.13
2022-11-22T23:01:36.254Z,89.66
2022-11-22T23:06:39.591Z,90.06
2022-11-22T23:12:00.025Z,89.89
2022-11-22T23:17:01.454Z,89.87
2022-11-22T23:22:03.574Z,90.21
2022-11-22T23:27:04.934Z,89.25
2022-11-22T23:32:06.363Z,89.30
2022-11-22T23:37:07.948Z,88.90
2022-11-22T23:42:09.303Z,88.30
2022-11-22T23:47:10.689Z,88.14
2022-11-22T23:52:12.079Z,88.81
2022-11-22T23:57:13.451Z,88.98
